sensor_id;sensor_type;location;lat;lon;timestamp;temperature;humidity
55008;DHT22;40902;45.116;21.296;2023-05-07T00:00:19;409.70;2355.20
55008;DHT22;40902;45.116;21.296;2023-05-07T00:02:46;409.70;2355.20
55008;DHT22;40902;45.116;21.296;2023-05-07T00:05:11;409.70;2355.20
55008;DHT22;40902;45.116;21.296;2023-05-07T00:07:37;409.70;2355.20
55008;DHT22;40902;45.116;21.296;2023-05-07T00:10:04;409.70;2355.20
55008;DHT22;40902;45.116;21.296;2023-05-07T00:12:30;409.70;2355.20
55008;DHT22;40902;45.116;21.296;2023-05-07T00:14:57;409.80;2355.20
55008;DHT22;40902;45.116;21.296;2023-05-07T00:17:23;409.70;2355.20
55008;DHT22;40902;45.116;21.296;2023-05-07T00:19:48;409.70;2355.20
55008;DHT22;40902;45.116;21.296;2023-05-07T00:22:14;409.70;2355.20
55008;DHT22;40902;45.116;21.296;2023-05-07T00:24:40;409.70;2355.20
55008;DHT22;40902;45.116;21.296;2023-05-07T00:27:06;409.70;2355.20
55008;DHT22;40902;45.116;21.296;2023-05-07T00:29:32;409.70;2355.20
55008;DHT22;40902;45.116;21.296;2023-05-07T00:31:57;409.70;2355.20
55008;DHT22;40902;45.116;21.296;2023-05-07T00:34:23;409.70;2355.20
55008;DHT22;40902;45.116;21.296;2023-05-07T00:36:49;409.70;2355.20
55008;DHT22;40902;45.116;21.296;2023-05-07T00:39:14;409.70;2355.20
55008;DHT22;40902;45.116;21.296;2023-05-07T00:41:40;409.70;2355.20
55008;DHT22;40902;45.116;21.296;2023-05-07T00:44:06;409.70;2355.20
55008;DHT22;40902;45.116;21.296;2023-05-07T00:46:32;409.60;2355.20
55008;DHT22;40902;45.116;21.296;2023-05-07T00:48:59;409.60;2355.20
55008;DHT22;40902;45.116;21.296;2023-05-07T00:51:26;409.60;2355.20
55008;DHT22;40902;45.116;21.296;2023-05-07T00:53:54;409.60;2355.20
55008;DHT22;40902;45.116;21.296;2023-05-07T00:56:21;409.60;2355.20
55008;DHT22;40902;45.116;21.296;2023-05-07T00:58:48;409.60;2355.20
55008;DHT22;40902;45.116;21.296;2023-05-07T01:01:14;409.60;2355.20
55008;DHT22;40902;45.116;21.296;2023-05-07T01:03:42;409.60;2355.20
55008;DHT22;40902;45.116;21.296;2023-05-07T01:06:08;409.60;2355.20
55008;DHT22;40902;45.116;21.296;2023-05-07T01:08:37;409.60;2355.20
55008;DHT22;40902;45.116;21.296;2023-05-07T01:11:05;409.60;2355.20
55008;DHT22;40902;45.116;21.296;2023-05-07T01:13:32;409.60;2355.20
55008;DHT22;40902;45.116;21.296;2023-05-07T01:15:58;409.60;2355.20
55008;DHT22;40902;45.116;21.296;2023-05-07T01:18:24;409.60;2355.20
55008;DHT22;40902;45.116;21.296;2023-05-07T01:20:51;384.90;2329.60
55008;DHT22;40902;45.116;21.296;2023-05-07T01:23:18;384.90;2329.60
55008;DHT22;40902;45.116;21.296;2023-05-07T01:25:53;409.60;2355.20
55008;DHT22;40902;45.116;21.296;2023-05-07T01:28:20;384.90;2329.60
55008;DHT22;40902;45.116;21.296;2023-05-07T01:30:55;409.60;2355.20
55008;DHT22;40902;45.116;21.296;2023-05-07T01:33:22;409.60;2355.20
55008;DHT22;40902;45.116;21.296;2023-05-07T01:35:51;409.70;2355.20
55008;DHT22;40902;45.116;21.296;2023-05-07T01:38:18;409.70;2355.20
55008;DHT22;40902;45.116;21.296;2023-05-07T01:40:46;409.70;2355.20
55008;DHT22;40902;45.116;21.296;2023-05-07T01:43:12;409.70;2355.20
55008;DHT22;40902;45.116;21.296;2023-05-07T01:45:38;409.70;2355.20
55008;DHT22;40902;45.116;21.296;2023-05-07T01:48:05;409.70;2355.20
55008;DHT22;40902;45.116;21.296;2023-05-07T01:50:32;409.80;2355.20
55008;DHT22;40902;45.116;21.296;2023-05-07T01:52:59;409.80;2355.20
55008;DHT22;40902;45.116;21.296;2023-05-07T01:55:25;409.80;2355.20
55008;DHT22;40902;45.116;21.296;2023-05-07T01:57:50;409.90;2355.20
55008;DHT22;40902;45.116;21.296;2023-05-07T02:00:16;409.90;2355.20
55008;DHT22;40902;45.116;21.296;2023-05-07T02:02:42;409.90;2355.20
55008;DHT22;40902;45.116;21.296;2023-05-07T02:05:08;409.90;2355.20
55008;DHT22;40902;45.116;21.296;2023-05-07T02:07:35;409.90;2355.20
55008;DHT22;40902;45.116;21.296;2023-05-07T02:10:00;409.90;2355.20
55008;DHT22;40902;45.116;21.296;2023-05-07T02:12:26;409.80;2355.20
55008;DHT22;40902;45.116;21.296;2023-05-07T02:14:52;409.80;2355.20
55008;DHT22;40902;45.116;21.296;2023-05-07T02:17:18;409.80;2355.20
55008;DHT22;40902;45.116;21.296;2023-05-07T02:19:44;409.80;2355.20
55008;DHT22;40902;45.116;21.296;2023-05-07T02:22:10;409.80;2355.20
55008;DHT22;40902;45.116;21.296;2023-05-07T02:24:35;409.80;2355.20
55008;DHT22;40902;45.116;21.296;2023-05-07T02:27:01;409.80;2355.20
55008;DHT22;40902;45.116;21.296;2023-05-07T02:29:28;409.80;2355.20
55008;DHT22;40902;45.116;21.296;2023-05-07T02:31:54;409.80;2355.20
55008;DHT22;40902;45.116;21.296;2023-05-07T02:34:21;409.80;2355.20
55008;DHT22;40902;45.116;21.296;2023-05-07T02:36:46;409.80;2355.20
55008;DHT22;40902;45.116;21.296;2023-05-07T02:39:13;409.80;2355.20
55008;DHT22;40902;45.116;21.296;2023-05-07T02:41:39;409.80;2355.20
55008;DHT22;40902;45.116;21.296;2023-05-07T02:44:05;409.80;2355.20
55008;DHT22;40902;45.116;21.296;2023-05-07T02:46:30;409.80;2355.20
55008;DHT22;40902;45.116;21.296;2023-05-07T02:48:56;409.80;2355.20
55008;DHT22;40902;45.116;21.296;2023-05-07T02:51:23;409.80;2355.20
55008;DHT22;40902;45.116;21.296;2023-05-07T02:53:48;409.80;2355.20
55008;DHT22;40902;45.116;21.296;2023-05-07T02:56:14;409.80;2355.20
55008;DHT22;40902;45.116;21.296;2023-05-07T02:58:40;409.80;2355.20
55008;DHT22;40902;45.116;21.296;2023-05-07T03:01:07;409.90;2355.20
55008;DHT22;40902;45.116;21.296;2023-05-07T03:03:34;409.80;2355.20
55008;DHT22;40902;45.116;21.296;2023-05-07T03:06:00;409.80;2355.20
55008;DHT22;40902;45.116;21.296;2023-05-07T03:08:25;409.80;2355.20
55008;DHT22;40902;45.116;21.296;2023-05-07T03:10:51;409.80;2355.20
55008;DHT22;40902;45.116;21.296;2023-05-07T03:13:18;409.80;2355.20
55008;DHT22;40902;45.116;21.296;2023-05-07T03:15:43;409.80;2355.20
55008;DHT22;40902;45.116;21.296;2023-05-07T03:18:09;409.80;2355.20
55008;DHT22;40902;45.116;21.296;2023-05-07T03:20:35;409.80;2355.20
55008;DHT22;40902;45.116;21.296;2023-05-07T03:23:02;409.80;2355.20
55008;DHT22;40902;45.116;21.296;2023-05-07T03:25:28;409.80;2355.20
55008;DHT22;40902;45.116;21.296;2023-05-07T03:27:56;409.80;2355.20
55008;DHT22;40902;45.116;21.296;2023-05-07T03:30:21;409.80;2355.20
55008;DHT22;40902;45.116;21.296;2023-05-07T03:32:47;409.80;2355.20
55008;DHT22;40902;45.116;21.296;2023-05-07T03:35:13;409.80;2355.20
55008;DHT22;40902;45.116;21.296;2023-05-07T03:37:39;409.80;2355.20
55008;DHT22;40902;45.116;21.296;2023-05-07T03:40:06;409.80;2355.20
55008;DHT22;40902;45.116;21.296;2023-05-07T03:42:32;409.80;2355.20
55008;DHT22;40902;45.116;21.296;2023-05-07T03:44:57;409.80;2355.20
55008;DHT22;40902;45.116;21.296;2023-05-07T03:47:23;409.80;2355.20
55008;DHT22;40902;45.116;21.296;2023-05-07T03:49:49;409.90;2355.20
55008;DHT22;40902;45.116;21.296;2023-05-07T03:52:15;409.90;2355.20
55008;DHT22;40902;45.116;21.296;2023-05-07T03:54:41;409.90;2355.20
55008;DHT22;40902;45.116;21.296;2023-05-07T03:57:07;409.90;2355.20
55008;DHT22;40902;45.116;21.296;2023-05-07T03:59:32;410.00;2355.20
55008;DHT22;40902;45.116;21.296;2023-05-07T04:01:58;410.00;2355.20
55008;DHT22;40902;45.116;21.296;2023-05-07T04:04:24;410.00;2355.20
55008;DHT22;40902;45.116;21.296;2023-05-07T04:06:50;410.00;2355.20
55008;DHT22;40902;45.116;21.296;2023-05-07T04:09:15;410.10;2355.20
55008;DHT22;40902;45.116;21.296;2023-05-07T04:11:41;410.10;2355.20
55008;DHT22;40902;45.116;21.296;2023-05-07T04:14:07;410.20;2355.20
55008;DHT22;40902;45.116;21.296;2023-05-07T04:16:34;410.20;2355.20
55008;DHT22;40902;45.116;21.296;2023-05-07T04:19:00;410.30;2355.20
55008;DHT22;40902;45.116;21.296;2023-05-07T04:21:26;410.30;2355.20
55008;DHT22;40902;45.116;21.296;2023-05-07T04:23:52;410.40;2355.20
55008;DHT22;40902;45.116;21.296;2023-05-07T04:26:17;410.40;2355.20
55008;DHT22;40902;45.116;21.296;2023-05-07T04:28:43;410.50;2355.20
55008;DHT22;40902;45.116;21.296;2023-05-07T04:31:09;410.50;2355.20
55008;DHT22;40902;45.116;21.296;2023-05-07T04:33:35;435.20;2355.20
55008;DHT22;40902;45.116;21.296;2023-05-07T04:36:04;435.20;2355.20
55008;DHT22;40902;45.116;21.296;2023-05-07T04:38:30;435.30;2355.20
55008;DHT22;40902;45.116;21.296;2023-05-07T04:41:03;435.30;2355.20
55008;DHT22;40902;45.116;21.296;2023-05-07T04:43:29;435.30;2355.20
55008;DHT22;40902;45.116;21.296;2023-05-07T04:45:55;435.30;2355.20
55008;DHT22;40902;45.116;21.296;2023-05-07T04:48:21;435.40;2355.20
55008;DHT22;40902;45.116;21.296;2023-05-07T04:50:48;435.40;2355.20
55008;DHT22;40902;45.116;21.296;2023-05-07T04:53:14;435.50;2355.20
55008;DHT22;40902;45.116;21.296;2023-05-07T04:55:39;435.60;2355.20
55008;DHT22;40902;45.116;21.296;2023-05-07T04:58:05;435.60;2355.20
55008;DHT22;40902;45.116;21.296;2023-05-07T05:00:31;435.60;2355.20
55008;DHT22;40902;45.116;21.296;2023-05-07T05:02:57;435.70;2355.20
55008;DHT22;40902;45.116;21.296;2023-05-07T05:05:22;435.80;2355.20
55008;DHT22;40902;45.116;21.296;2023-05-07T05:07:48;435.90;2355.20
55008;DHT22;40902;45.116;21.296;2023-05-07T05:10:14;435.90;2355.20
55008;DHT22;40902;45.116;21.296;2023-05-07T05:12:39;436.00;2355.20
55008;DHT22;40902;45.116;21.296;2023-05-07T05:15:06;436.00;2355.20
55008;DHT22;40902;45.116;21.296;2023-05-07T05:17:31;436.10;2355.20
55008;DHT22;40902;45.116;21.296;2023-05-07T05:19:59;460.80;2380.80
55008;DHT22;40902;45.116;21.296;2023-05-07T05:22:25;460.90;2355.20
55008;DHT22;40902;45.116;21.296;2023-05-07T05:24:51;461.00;2380.80
55008;DHT22;40902;45.116;21.296;2023-05-07T05:27:16;461.00;2380.80
55008;DHT22;40902;45.116;21.296;2023-05-07T05:29:42;461.10;2355.20
55008;DHT22;40902;45.116;21.296;2023-05-07T05:32:08;461.20;2380.80
55008;DHT22;40902;45.116;21.296;2023-05-07T05:34:33;461.50;2380.80
55008;DHT22;40902;45.116;21.296;2023-05-07T05:36:59;461.30;2380.80
55008;DHT22;40902;45.116;21.296;2023-05-07T05:39:25;461.30;2355.20
55008;DHT22;40902;45.116;21.296;2023-05-07T05:41:51;461.30;2380.80
55008;DHT22;40902;45.116;21.296;2023-05-07T05:44:16;461.40;2380.80
55008;DHT22;40902;45.116;21.296;2023-05-07T05:46:42;461.40;2329.60
55008;DHT22;40902;45.116;21.296;2023-05-07T05:49:08;461.50;2355.20
55008;DHT22;40902;45.116;21.296;2023-05-07T05:51:34;461.50;2329.60
55008;DHT22;40902;45.116;21.296;2023-05-07T05:53:59;461.60;2355.20
55008;DHT22;40902;45.116;21.296;2023-05-07T05:56:25;461.60;2329.60
55008;DHT22;40902;45.116;21.296;2023-05-07T05:58:51;461.60;2329.60
55008;DHT22;40902;45.116;21.296;2023-05-07T06:01:18;461.70;2355.20
55008;DHT22;40902;45.116;21.296;2023-05-07T06:03:44;486.40;2355.20
55008;DHT22;40902;45.116;21.296;2023-05-07T06:06:09;486.50;2355.20
55008;DHT22;40902;45.116;21.296;2023-05-07T06:08:35;486.50;2355.20
55008;DHT22;40902;45.116;21.296;2023-05-07T06:11:01;486.60;2304.00
55008;DHT22;40902;45.116;21.296;2023-05-07T06:13:28;486.60;2329.60
55008;DHT22;40902;45.116;21.296;2023-05-07T06:15:54;486.80;2355.20
55008;DHT22;40902;45.116;21.296;2023-05-07T06:18:19;486.80;2304.00
55008;DHT22;40902;45.116;21.296;2023-05-07T06:20:45;486.90;2304.00
55008;DHT22;40902;45.116;21.296;2023-05-07T06:23:10;486.90;2278.40
55008;DHT22;40902;45.116;21.296;2023-05-07T06:25:36;487.00;2278.40
55008;DHT22;40902;45.116;21.296;2023-05-07T06:28:02;487.10;2252.80
55008;DHT22;40902;45.116;21.296;2023-05-07T06:30:28;487.10;2252.80
55008;DHT22;40902;45.116;21.296;2023-05-07T06:32:53;487.20;2227.20
55008;DHT22;40902;45.116;21.296;2023-05-07T06:35:19;487.30;2176.00
55008;DHT22;40902;45.116;21.296;2023-05-07T06:37:45;512.00;2201.60
55008;DHT22;40902;45.116;21.296;2023-05-07T06:40:11;512.00;2176.00
55008;DHT22;40902;45.116;21.296;2023-05-07T06:42:37;512.10;2201.60
55008;DHT22;40902;45.116;21.296;2023-05-07T06:45:03;512.10;2150.40
55008;DHT22;40902;45.116;21.296;2023-05-07T06:47:29;512.20;2201.60
55008;DHT22;40902;45.116;21.296;2023-05-07T06:49:55;512.30;2201.60
55008;DHT22;40902;45.116;21.296;2023-05-07T06:52:21;512.90;2176.00
55008;DHT22;40902;45.116;21.296;2023-05-07T21:02:36;486.80;2380.80
55008;DHT22;40902;45.116;21.296;2023-05-07T21:05:02;486.80;2380.80
55008;DHT22;40902;45.116;21.296;2023-05-07T21:07:28;486.70;2380.80
55008;DHT22;40902;45.116;21.296;2023-05-07T21:09:54;486.60;2380.80
55008;DHT22;40902;45.116;21.296;2023-05-07T21:12:21;486.60;2380.80
55008;DHT22;40902;45.116;21.296;2023-05-07T21:14:47;486.60;2380.80
55008;DHT22;40902;45.116;21.296;2023-05-07T21:17:13;486.60;2380.80
55008;DHT22;40902;45.116;21.296;2023-05-07T21:19:39;486.60;2380.80
55008;DHT22;40902;45.116;21.296;2023-05-07T21:22:05;486.60;2380.80
55008;DHT22;40902;45.116;21.296;2023-05-07T21:24:30;486.60;2380.80
55008;DHT22;40902;45.116;21.296;2023-05-07T21:26:57;486.60;2380.80
55008;DHT22;40902;45.116;21.296;2023-05-07T21:29:24;486.50;2380.80
55008;DHT22;40902;45.116;21.296;2023-05-07T21:31:51;486.50;2380.80
55008;DHT22;40902;45.116;21.296;2023-05-07T21:34:16;486.40;2380.80
55008;DHT22;40902;45.116;21.296;2023-05-07T21:36:42;486.40;2380.80
55008;DHT22;40902;45.116;21.296;2023-05-07T21:39:08;461.70;2380.80
55008;DHT22;40902;45.116;21.296;2023-05-07T21:41:34;461.70;2380.80
55008;DHT22;40902;45.116;21.296;2023-05-07T21:44:02;461.60;2380.80
55008;DHT22;40902;45.116;21.296;2023-05-07T21:46:27;461.60;2380.80
55008;DHT22;40902;45.116;21.296;2023-05-07T21:53:45;486.50;2380.80
55008;DHT22;40902;45.116;21.296;2023-05-07T22:47:22;461.30;2380.80
55008;DHT22;40902;45.116;21.296;2023-05-07T22:49:48;461.00;2380.80
55008;DHT22;40902;45.116;21.296;2023-05-07T22:52:14;460.90;2380.80
55008;DHT22;40902;45.116;21.296;2023-05-07T22:54:40;460.90;2380.80
55008;DHT22;40902;45.116;21.296;2023-05-07T22:57:06;436.10;2355.20
55008;DHT22;40902;45.116;21.296;2023-05-07T22:59:32;436.10;2355.20
55008;DHT22;40902;45.116;21.296;2023-05-07T23:01:57;436.10;2355.20
55008;DHT22;40902;45.116;21.296;2023-05-07T23:04:23;436.10;2355.20
55008;DHT22;40902;45.116;21.296;2023-05-07T23:31:11;460.90;2380.80
55008;DHT22;40902;45.116;21.296;2023-05-07T23:33:37;435.90;2355.20
55008;DHT22;40902;45.116;21.296;2023-05-07T23:40:56;436.10;2355.20
55008;DHT22;40902;45.116;21.296;2023-05-07T23:43:22;435.70;2355.20
55008;DHT22;40902;45.116;21.296;2023-05-07T23:45:48;435.60;2355.20
55008;DHT22;40902;45.116;21.296;2023-05-07T23:48:14;435.60;2355.20
55008;DHT22;40902;45.116;21.296;2023-05-07T23:50:39;435.60;2355.20
55008;DHT22;40902;45.116;21.296;2023-05-07T23:53:05;435.60;2355.20
55008;DHT22;40902;45.116;21.296;2023-05-07T23:55:31;435.60;2355.20
55008;DHT22;40902;45.116;21.296;2023-05-07T23:57:56;435.60;2355.20
